Time;durP1;ratioP1;P1;durP2;ratioP2;P2;SDS_P1;SDS_P2;PMS_P1;PMS_P2;Temp;Humidity;BMP_temperature;BMP_pressure;BME280_temperature;BME280_humidity;BME280_pressure;Samples;Min_cycle;Max_cycle;Signal;HPM_P1;HPM_P2
2022/12/29 00:01:12;;;;;;;2.10;0.70;;;;;;;;;;5007587;28;20825;-68
2022/12/29 00:03:38;;;;;;;0.63;0.50;;;;;;;;;;5007650;28;20420;-69
2022/12/29 00:06:03;;;;;;;1.30;0.60;;;;;;;;;;5006664;28;20343;-68
2022/12/29 00:08:39;;;;;;;2.13;0.50;;;;;;;;;;5005795;28;20637;-68
2022/12/29 00:11:05;;;;;;;1.55;0.60;;;;;;;;;;5005860;28;20026;-69
2022/12/29 00:16:14;;;;;;;0.98;0.60;;;;;;;;;;5007125;28;20398;-69
2022/12/29 00:18:39;;;;;;;0.90;0.40;;;;;;;;;;5009124;28;20030;-69
2022/12/29 00:35:39;;;;;;;1.38;0.40;;;;;;;;;;5004739;28;20124;-68
2022/12/29 00:46:19;;;;;;;0.63;0.32;;;;;;;;;;5008771;28;20123;-68
2022/12/29 00:51:27;;;;;;;1.02;0.45;;;;;;;;;;5006573;28;20284;-69
2022/12/29 00:53:52;;;;;;;0.83;0.20;;;;;;;;;;5005252;28;20022;-69
2022/12/29 00:56:18;;;;;;;1.83;0.30;;;;;;;;;;5005283;28;20302;-68
2022/12/29 00:58:43;;;;;;;0.30;0.30;;;;;;;;;;5007155;28;20280;-68
2022/12/29 01:01:08;;;;;;;0.20;0.20;;;;;;;;;;5008358;28;20088;-68
2022/12/29 01:03:34;;;;;;;0.50;0.50;;;;;;;;;;5009187;28;20046;-68
2022/12/29 01:06:00;;;;;;;0.77;0.40;;;;;;;;;;5005546;28;20026;-68
2022/12/29 01:08:27;;;;;;;0.28;0.20;;;;;;;;;;5008239;28;20030;-68
2022/12/29 01:11:08;;;;;;;0.30;0.20;;;;;;;;;;5006404;28;20034;-68
2022/12/29 01:13:34;;;;;;;0.63;0.30;;;;;;;;;;5007842;28;20482;-68
2022/12/29 01:15:59;;;;;;;0.47;0.38;;;;;;;;;;5007358;28;20034;-68
2022/12/29 01:18:25;;;;;;;0.30;0.22;;;;;;;;;;5007291;28;20041;-68
2022/12/29 01:20:50;;;;;;;0.30;0.20;;;;;;;;;;5007817;28;20022;-69
2022/12/29 01:23:15;;;;;;;0.45;0.15;;;;;;;;;;5008340;28;20398;-69
2022/12/29 01:25:41;;;;;;;0.43;0.25;;;;;;;;;;5009105;28;20619;-68
2022/12/29 01:28:08;;;;;;;0.50;0.30;;;;;;;;;;5007891;28;20081;-68
2022/12/29 01:30:33;;;;;;;1.55;0.22;;;;;;;;;;5007083;28;20538;-68
2022/12/29 01:32:58;;;;;;;0.10;0.10;;;;;;;;;;5010968;28;20117;-68
2022/12/29 01:35:23;;;;;;;0.28;0.13;;;;;;;;;;5012155;28;20060;-68
2022/12/29 01:37:49;;;;;;;0.17;0.17;;;;;;;;;;5012919;28;20407;-68
2022/12/29 01:40:14;;;;;;;0.30;0.20;;;;;;;;;;5011412;28;20328;-68
2022/12/29 01:42:39;;;;;;;2.38;0.17;;;;;;;;;;5011368;28;20271;-68
2022/12/29 01:45:14;;;;;;;0.67;0.30;;;;;;;;;;5011675;28;20032;-68
2022/12/29 01:47:44;;;;;;;3.13;0.40;;;;;;;;;;5011740;28;20364;-68
2022/12/29 01:50:12;;;;;;;0.22;0.15;;;;;;;;;;5008389;28;20026;-68
2022/12/29 01:52:40;;;;;;;0.17;0.17;;;;;;;;;;5011837;28;20097;-68
2022/12/29 01:55:06;;;;;;;0.38;0.22;;;;;;;;;;5011652;28;20030;-68
2022/12/29 01:57:34;;;;;;;0.13;0.13;;;;;;;;;;5010398;28;20553;-68
2022/12/29 02:00:09;;;;;;;0.90;0.38;;;;;;;;;;5011235;28;20014;-68
2022/12/29 02:02:35;;;;;;;1.50;0.20;;;;;;;;;;5010849;28;20025;-68
2022/12/29 02:05:04;;;;;;;0.77;0.40;;;;;;;;;;5010566;28;20025;-68
2022/12/29 02:07:31;;;;;;;0.10;0.10;;;;;;;;;;5009945;28;20022;-68
2022/12/29 02:09:56;;;;;;;0.50;0.17;;;;;;;;;;4992550;28;20470;-68
2022/12/29 02:12:23;;;;;;;0.30;0.20;;;;;;;;;;5011360;28;20018;-68
2022/12/29 02:14:50;;;;;;;0.57;0.20;;;;;;;;;;5011136;28;20017;-68
2022/12/29 02:17:20;;;;;;;1.02;0.45;;;;;;;;;;5011123;28;20017;-67
2022/12/29 02:19:45;;;;;;;0.68;0.20;;;;;;;;;;5010668;28;20470;-68
2022/12/29 02:22:20;;;;;;;0.68;0.30;;;;;;;;;;5010056;28;20044;-68
2022/12/29 02:24:54;;;;;;;5.07;0.50;;;;;;;;;;5008507;28;20022;-68
2022/12/29 02:27:22;;;;;;;0.98;0.30;;;;;;;;;;5010770;28;20676;-68
2022/12/29 02:29:47;;;;;;;1.50;0.40;;;;;;;;;;5008985;28;20022;-68
2022/12/29 02:32:31;;;;;;;1.13;0.40;;;;;;;;;;5010617;28;20033;-68
2022/12/29 02:35:02;;;;;;;0.77;0.38;;;;;;;;;;5008645;28;20030;-67
2022/12/29 02:37:31;;;;;;;4.95;0.60;;;;;;;;;;5006830;28;20022;-68
2022/12/29 02:40:04;;;;;;;0.98;0.30;;;;;;;;;;5009902;28;20022;-68
2022/12/29 02:42:46;;;;;;;1.25;0.40;;;;;;;;;;5011503;28;20382;-68
2022/12/29 02:45:15;;;;;;;0.80;0.40;;;;;;;;;;5009588;28;20017;-67
2022/12/29 02:48:01;;;;;;;1.13;0.40;;;;;;;;;;5010936;28;20037;-67
2022/12/29 02:50:51;;;;;;;0.45;0.20;;;;;;;;;;5007027;28;20026;-67
2022/12/29 02:54:40;;;;;;;1.55;0.38;;;;;;;;;;5010906;28;20041;-67
2022/12/29 02:56:03;;;;;;;0.45;0.25;;;;;;;;;;5009616;28;20034;-67
2022/12/29 02:58:28;;;;;;;0.95;0.35;;;;;;;;;;5010680;28;20644;-67
2022/12/29 03:01:06;;;;;;;0.60;0.33;;;;;;;;;;5010840;28;20482;-67
2022/12/29 03:03:46;;;;;;;1.35;0.45;;;;;;;;;;5008037;28;20331;-67
2022/12/29 03:06:23;;;;;;;0.47;0.20;;;;;;;;;;5009951;28;20418;-67
2022/12/29 03:08:51;;;;;;;0.50;0.30;;;;;;;;;;5010018;28;20022;-67
2022/12/29 03:17:39;;;;;;;0.68;0.40;;;;;;;;;;5002919;28;20029;-67
2022/12/29 03:20:07;;;;;;;0.30;0.20;;;;;;;;;;5004807;28;20121;-67
2022/12/29 03:22:35;;;;;;;1.10;0.30;;;;;;;;;;5010553;28;20374;-68
2022/12/29 03:25:04;;;;;;;1.15;0.40;;;;;;;;;;5010137;28;20454;-68
2022/12/29 03:27:32;;;;;;;0.30;0.20;;;;;;;;;;5010454;28;20068;-68
2022/12/29 03:30:00;;;;;;;1.20;0.47;;;;;;;;;;5009287;28;20113;-68
2022/12/29 03:32:28;;;;;;;0.50;0.50;;;;;;;;;;5009705;28;20021;-68
2022/12/29 03:34:53;;;;;;;5.93;0.38;;;;;;;;;;5009568;28;20018;-68
2022/12/29 03:37:21;;;;;;;0.45;0.28;;;;;;;;;;5010141;28;20038;-68
2022/12/29 03:39:47;;;;;;;0.73;0.30;;;;;;;;;;5009471;28;20045;-68
2022/12/29 03:42:19;;;;;;;1.50;0.20;;;;;;;;;;5010041;28;20025;-68
2022/12/29 03:44:44;;;;;;;0.15;0.13;;;;;;;;;;5009480;28;20022;-68
2022/12/29 03:47:10;;;;;;;0.52;0.30;;;;;;;;;;4991550;28;20026;-68
2022/12/29 03:49:35;;;;;;;0.95;0.50;;;;;;;;;;5010054;28;20021;-68
2022/12/29 03:52:00;;;;;;;0.88;0.25;;;;;;;;;;5009963;28;20097;-68
2022/12/29 03:54:25;;;;;;;0.57;0.40;;;;;;;;;;5009006;28;20092;-68
2022/12/29 03:56:51;;;;;;;2.00;0.53;;;;;;;;;;5010113;28;20037;-68
2022/12/29 03:59:16;;;;;;;0.57;0.30;;;;;;;;;;5008662;28;20296;-68
2022/12/29 04:01:41;;;;;;;0.25;0.20;;;;;;;;;;5006037;28;20365;-68
2022/12/29 04:04:06;;;;;;;0.95;0.20;;;;;;;;;;5008729;28;20037;-68
2022/12/29 04:06:32;;;;;;;0.93;0.35;;;;;;;;;;5009135;28;20026;-68
2022/12/29 04:08:57;;;;;;;0.30;0.30;;;;;;;;;;5010016;28;20055;-68
2022/12/29 04:11:22;;;;;;;0.55;0.20;;;;;;;;;;5007783;28;20034;-68
2022/12/29 04:13:47;;;;;;;1.15;0.20;;;;;;;;;;5009303;28;20025;-68
2022/12/29 04:16:12;;;;;;;1.40;0.30;;;;;;;;;;5009273;28;20076;-68
2022/12/29 04:18:38;;;;;;;0.22;0.20;;;;;;;;;;5009600;28;20120;-68
2022/12/29 04:21:03;;;;;;;0.20;0.20;;;;;;;;;;5009758;28;20100;-68
2022/12/29 04:23:30;;;;;;;0.55;0.30;;;;;;;;;;5008513;28;20125;-68
2022/12/29 04:25:55;;;;;;;0.47;0.20;;;;;;;;;;5008172;28;20022;-68
2022/12/29 04:28:20;;;;;;;0.20;0.20;;;;;;;;;;5009349;28;20024;-68
2022/12/29 04:30:46;;;;;;;1.38;0.20;;;;;;;;;;5009435;28;20045;-68
2022/12/29 04:33:11;;;;;;;7.80;0.40;;;;;;;;;;5009369;28;20029;-68
2022/12/29 04:35:36;;;;;;;2.42;0.35;;;;;;;;;;5008416;28;20022;-68
2022/12/29 04:38:02;;;;;;;1.17;0.30;;;;;;;;;;5009339;28;20100;-68
2022/12/29 04:40:27;;;;;;;0.30;0.20;;;;;;;;;;5031188;23;20621;-68
2022/12/29 04:42:52;;;;;;;0.52;0.20;;;;;;;;;;5008033;28;20025;-68
2022/12/29 04:45:18;;;;;;;0.75;0.45;;;;;;;;;;5009617;28;20463;-70
2022/12/29 04:47:43;;;;;;;6.30;0.55;;;;;;;;;;5008632;28;20022;-70
2022/12/29 04:50:08;;;;;;;0.43;0.27;;;;;;;;;;5006593;28;20034;-70
2022/12/29 04:52:34;;;;;;;0.20;0.20;;;;;;;;;;4991996;28;20276;-70
2022/12/29 04:54:59;;;;;;;0.10;0.10;;;;;;;;;;4992569;28;20466;-70
2022/12/29 04:57:24;;;;;;;3.60;0.40;;;;;;;;;;4993653;28;20026;-70
2022/12/29 04:59:49;;;;;;;2.10;0.40;;;;;;;;;;4992368;28;20021;-70
2022/12/29 05:02:15;;;;;;;0.95;0.50;;;;;;;;;;4991958;28;20316;-70
2022/12/29 05:04:40;;;;;;;0.20;0.20;;;;;;;;;;4993294;28;20037;-70
2022/12/29 05:07:05;;;;;;;0.73;0.23;;;;;;;;;;4993767;28;20014;-70
2022/12/29 05:09:30;;;;;;;0.87;0.33;;;;;;;;;;4995482;28;20288;-70
2022/12/29 05:11:56;;;;;;;0.73;0.50;;;;;;;;;;4993103;28;20272;-70
2022/12/29 05:14:21;;;;;;;4.57;1.43;;;;;;;;;;4996474;28;20357;-70
2022/12/29 05:16:46;;;;;;;4.43;1.83;;;;;;;;;;4993676;28;20323;-70
2022/12/29 05:19:11;;;;;;;29.73;10.32;;;;;;;;;;4997994;28;20368;-70
2022/12/29 05:21:37;;;;;;;3.10;1.20;;;;;;;;;;4994061;28;20530;-70
2022/12/29 05:24:02;;;;;;;2.03;0.70;;;;;;;;;;4991443;28;20276;-70
2022/12/29 05:26:27;;;;;;;4.15;0.40;;;;;;;;;;4995138;28;20289;-70
2022/12/29 05:28:52;;;;;;;2.65;0.43;;;;;;;;;;4979547;28;20041;-70
2022/12/29 05:31:17;;;;;;;1.02;0.50;;;;;;;;;;4987735;28;20572;-70
2022/12/29 05:33:43;;;;;;;1.93;0.27;;;;;;;;;;4994206;28;20022;-70
2022/12/29 05:36:08;;;;;;;1.17;0.40;;;;;;;;;;4990080;28;20289;-70
2022/12/29 05:38:34;;;;;;;1.65;0.80;;;;;;;;;;4991841;28;20034;-70
2022/12/29 05:40:59;;;;;;;1.77;0.30;;;;;;;;;;4993398;28;20022;-71
2022/12/29 05:43:24;;;;;;;2.33;0.52;;;;;;;;;;4992606;28;20378;-70
2022/12/29 05:45:49;;;;;;;0.57;0.33;;;;;;;;;;4990562;28;20546;-70
2022/12/29 05:48:15;;;;;;;1.35;0.43;;;;;;;;;;4993150;28;20355;-70
2022/12/29 05:50:40;;;;;;;3.33;0.82;;;;;;;;;;4991977;28;20487;-70
2022/12/29 05:53:05;;;;;;;1.45;0.47;;;;;;;;;;4991393;28;20033;-70
2022/12/29 05:55:30;;;;;;;1.20;0.45;;;;;;;;;;4993688;28;20030;-70
2022/12/29 05:57:56;;;;;;;1.27;0.20;;;;;;;;;;4994155;28;20375;-70
2022/12/29 06:00:21;;;;;;;0.38;0.30;;;;;;;;;;4992555;28;20300;-71
2022/12/29 06:02:46;;;;;;;2.17;0.40;;;;;;;;;;4976691;28;20081;-70
2022/12/29 06:05:11;;;;;;;2.25;0.52;;;;;;;;;;4996016;28;20773;-70
2022/12/29 06:07:36;;;;;;;2.28;0.40;;;;;;;;;;4994306;28;20534;-70
2022/12/29 06:10:02;;;;;;;1.73;0.50;;;;;;;;;;4993492;28;20487;-70
2022/12/29 06:12:27;;;;;;;1.83;0.32;;;;;;;;;;4993561;28;20102;-70
2022/12/29 06:14:52;;;;;;;0.43;0.35;;;;;;;;;;4989447;28;20085;-70
2022/12/29 06:17:17;;;;;;;7.75;0.52;;;;;;;;;;4994006;28;20364;-69
2022/12/29 06:19:43;;;;;;;0.20;0.13;;;;;;;;;;4990820;28;20053;-70
2022/12/29 06:22:11;;;;;;;3.35;0.43;;;;;;;;;;4992448;28;20352;-70
2022/12/29 06:24:37;;;;;;;1.67;0.30;;;;;;;;;;4990933;28;20471;-70
2022/12/29 06:27:02;;;;;;;5.10;0.50;;;;;;;;;;4975611;28;20038;-70
2022/12/29 06:29:27;;;;;;;0.47;0.40;;;;;;;;;;4989168;28;20276;-70
2022/12/29 06:31:55;;;;;;;5.50;1.10;;;;;;;;;;4985428;28;20026;-70
2022/12/29 06:34:21;;;;;;;1.20;0.40;;;;;;;;;;4988168;28;20032;-70
2022/12/29 06:36:46;;;;;;;1.77;0.40;;;;;;;;;;4989773;28;20023;-70
2022/12/29 06:39:11;;;;;;;3.00;0.50;;;;;;;;;;4987716;28;20035;-70
2022/12/29 06:41:36;;;;;;;1.38;0.40;;;;;;;;;;4989760;28;20281;-70
2022/12/29 06:44:01;;;;;;;0.93;0.30;;;;;;;;;;4989792;28;20037;-70
2022/12/29 06:46:27;;;;;;;3.75;0.43;;;;;;;;;;4987621;28;20348;-70
2022/12/29 06:48:52;;;;;;;1.77;0.60;;;;;;;;;;4984679;28;20038;-70
2022/12/29 06:51:17;;;;;;;0.57;0.50;;;;;;;;;;4986767;28;20284;-69
2022/12/29 06:53:42;;;;;;;4.63;0.50;;;;;;;;;;4990552;28;20880;-70
2022/12/29 06:56:07;;;;;;;4.87;0.50;;;;;;;;;;4991725;28;20292;-70
2022/12/29 06:58:33;;;;;;;1.42;0.40;;;;;;;;;;4992573;28;20294;-70
2022/12/29 07:00:58;;;;;;;0.60;0.30;;;;;;;;;;4993567;28;20472;-70
2022/12/29 07:03:23;;;;;;;4.20;0.60;;;;;;;;;;4992593;28;20021;-70
2022/12/29 07:05:48;;;;;;;3.30;0.60;;;;;;;;;;4988691;28;20679;-69
2022/12/29 07:08:14;;;;;;;1.20;0.50;;;;;;;;;;4990179;28;20292;-70
2022/12/29 07:10:39;;;;;;;2.65;0.85;;;;;;;;;;4971740;28;20602;-70
2022/12/29 07:13:04;;;;;;;7.43;0.77;;;;;;;;;;4990657;28;20026;-70
2022/12/29 07:15:29;;;;;;;1.17;0.68;;;;;;;;;;4989965;28;20296;-70
2022/12/29 07:17:54;;;;;;;6.90;0.77;;;;;;;;;;4992886;28;21135;-70
2022/12/29 07:20:20;;;;;;;0.57;0.30;;;;;;;;;;4990156;28;20341;-70
2022/12/29 07:22:46;;;;;;;3.97;0.80;;;;;;;;;;4988859;28;20452;-70
2022/12/29 07:25:12;;;;;;;3.08;0.57;;;;;;;;;;4992078;28;20432;-70
2022/12/29 07:27:37;;;;;;;0.45;0.25;;;;;;;;;;4991744;28;20061;-70
2022/12/29 07:30:02;;;;;;;3.03;0.40;;;;;;;;;;4990014;28;20105;-70
2022/12/29 07:32:28;;;;;;;2.33;0.40;;;;;;;;;;4992857;28;20022;-70
2022/12/29 07:34:53;;;;;;;0.47;0.20;;;;;;;;;;4986353;28;20460;-70
2022/12/29 07:37:18;;;;;;;3.43;0.67;;;;;;;;;;4990292;28;20547;-70
2022/12/29 07:39:43;;;;;;;3.28;0.40;;;;;;;;;;4986484;28;20286;-70
2022/12/29 07:42:09;;;;;;;0.93;0.40;;;;;;;;;;4985532;28;20483;-70
2022/12/29 07:44:34;;;;;;;5.07;0.50;;;;;;;;;;4991387;28;20034;-70
2022/12/29 07:46:59;;;;;;;3.65;0.63;;;;;;;;;;4990472;28;20014;-71
2022/12/29 07:49:24;;;;;;;2.42;0.45;;;;;;;;;;4991316;28;20073;-70
2022/12/29 07:51:50;;;;;;;3.03;0.40;;;;;;;;;;4991040;28;20077;-70
2022/12/29 07:54:17;;;;;;;1.67;0.32;;;;;;;;;;4991122;28;20284;-70
2022/12/29 07:56:43;;;;;;;2.75;0.35;;;;;;;;;;4986806;28;20031;-70
2022/12/29 07:59:08;;;;;;;4.88;0.47;;;;;;;;;;4988624;28;20438;-70
2022/12/29 08:01:33;;;;;;;0.95;0.40;;;;;;;;;;4985542;28;20682;-70
2022/12/29 08:03:58;;;;;;;5.53;0.60;;;;;;;;;;4986605;28;20449;-70
2022/12/29 08:06:24;;;;;;;0.80;0.37;;;;;;;;;;4990676;28;20289;-70
2022/12/29 08:08:49;;;;;;;2.65;0.30;;;;;;;;;;4970452;28;20278;-70
2022/12/29 08:11:14;;;;;;;2.13;0.28;;;;;;;;;;4991659;28;20112;-71
2022/12/29 08:13:39;;;;;;;0.38;0.22;;;;;;;;;;4989276;28;20165;-70
2022/12/29 08:16:05;;;;;;;3.30;0.47;;;;;;;;;;4991313;28;20110;-70
2022/12/29 08:18:30;;;;;;;4.78;0.73;;;;;;;;;;4990063;28;20293;-70
2022/12/29 08:20:55;;;;;;;2.30;0.28;;;;;;;;;;4988022;28;20030;-70
2022/12/29 08:23:21;;;;;;;5.60;0.53;;;;;;;;;;4984822;28;20030;-70
2022/12/29 08:25:46;;;;;;;6.07;1.47;;;;;;;;;;4988167;28;20283;-70
2022/12/29 08:28:11;;;;;;;6.50;1.00;;;;;;;;;;4990119;28;20761;-70
2022/12/29 08:30:36;;;;;;;3.67;0.63;;;;;;;;;;4988810;28;20284;-69
2022/12/29 08:33:01;;;;;;;6.82;0.80;;;;;;;;;;4990955;28;20254;-70
2022/12/29 08:35:27;;;;;;;5.90;0.93;;;;;;;;;;4990704;28;20027;-69
2022/12/29 08:37:52;;;;;;;5.00;0.88;;;;;;;;;;4990041;28;20174;-70
2022/12/29 08:40:17;;;;;;;4.00;0.75;;;;;;;;;;4987563;28;20026;-70
2022/12/29 08:42:43;;;;;;;2.78;0.65;;;;;;;;;;4990534;28;20490;-70
2022/12/29 08:45:08;;;;;;;3.08;0.55;;;;;;;;;;4989889;28;20046;-70
2022/12/29 08:47:33;;;;;;;8.23;1.17;;;;;;;;;;4971841;28;20113;-70
2022/12/29 08:49:59;;;;;;;2.65;0.70;;;;;;;;;;4990715;28;20010;-69
2022/12/29 08:52:24;;;;;;;4.53;0.80;;;;;;;;;;4990444;28;20097;-69
2022/12/29 08:54:49;;;;;;;5.53;0.75;;;;;;;;;;4988057;28;20273;-69
2022/12/29 08:57:14;;;;;;;7.53;0.73;;;;;;;;;;4987402;28;20023;-70
2022/12/29 08:59:39;;;;;;;4.13;0.75;;;;;;;;;;4989068;28;20085;-69
2022/12/29 09:02:05;;;;;;;12.83;1.13;;;;;;;;;;4972855;28;20080;-69
2022/12/29 09:04:30;;;;;;;3.30;0.70;;;;;;;;;;4989941;28;20277;-70
2022/12/29 09:06:55;;;;;;;4.17;0.80;;;;;;;;;;4988263;28;20023;-70
2022/12/29 09:09:21;;;;;;;5.80;1.47;;;;;;;;;;4982735;28;20277;-69
2022/12/29 09:11:46;;;;;;;3.10;0.75;;;;;;;;;;4988468;28;20435;-70
2022/12/29 09:14:11;;;;;;;4.03;1.10;;;;;;;;;;4989966;28;20026;-70
2022/12/29 09:16:37;;;;;;;3.60;0.68;;;;;;;;;;4988732;28;20265;-69
2022/12/29 09:19:02;;;;;;;1.77;0.43;;;;;;;;;;4987481;28;20104;-69
2022/12/29 09:21:28;;;;;;;6.68;0.98;;;;;;;;;;4988489;28;20033;-69
2022/12/29 09:23:53;;;;;;;6.63;1.08;;;;;;;;;;4988340;28;20482;-69
2022/12/29 09:26:18;;;;;;;5.65;1.00;;;;;;;;;;4988619;28;20492;-70
2022/12/29 09:28:44;;;;;;;7.80;0.90;;;;;;;;;;4988109;28;20045;-70
2022/12/29 09:31:09;;;;;;;6.07;0.82;;;;;;;;;;4989359;28;20289;-70
2022/12/29 09:33:34;;;;;;;3.80;0.95;;;;;;;;;;4989965;28;20410;-70
2022/12/29 09:36:00;;;;;;;7.00;1.30;;;;;;;;;;4989271;28;20121;-70
2022/12/29 09:38:26;;;;;;;3.75;0.60;;;;;;;;;;4989448;28;20382;-69
2022/12/29 09:40:52;;;;;;;9.57;1.05;;;;;;;;;;4988219;28;20034;-69
2022/12/29 09:43:17;;;;;;;9.30;0.68;;;;;;;;;;4985821;28;20120;-68
2022/12/29 09:45:52;;;;;;;7.63;1.10;;;;;;;;;;4984897;28;20661;-68
2022/12/29 09:48:19;;;;;;;6.72;1.27;;;;;;;;;;4984269;28;20506;-68
2022/12/29 09:50:48;;;;;;;4.70;0.95;;;;;;;;;;4986767;28;20034;-68
2022/12/29 09:53:44;;;;;;;8.35;1.08;;;;;;;;;;4986615;28;20474;-68
2022/12/29 09:56:17;;;;;;;6.68;0.82;;;;;;;;;;4980390;28;20043;-68
2022/12/29 09:58:47;;;;;;;3.38;0.57;;;;;;;;;;4990371;28;20065;-68
2022/12/29 10:01:18;;;;;;;10.90;1.45;;;;;;;;;;4989285;28;20105;-68
2022/12/29 10:03:51;;;;;;;4.43;1.15;;;;;;;;;;4990226;28;20455;-68
2022/12/29 10:06:31;;;;;;;3.13;0.95;;;;;;;;;;4989692;28;20029;-68
2022/12/29 10:09:08;;;;;;;9.27;1.15;;;;;;;;;;4991379;28;20022;-70
2022/12/29 10:11:54;;;;;;;4.28;0.57;;;;;;;;;;4992787;28;20118;-69
2022/12/29 10:14:22;;;;;;;6.85;0.85;;;;;;;;;;4990618;28;20014;-69
2022/12/29 10:17:05;;;;;;;4.20;0.55;;;;;;;;;;4990466;28;20549;-69
2022/12/29 10:19:45;;;;;;;6.90;1.05;;;;;;;;;;4979627;28;20033;-69
2022/12/29 10:22:25;;;;;;;3.55;0.80;;;;;;;;;;4990815;28;20026;-69
2022/12/29 10:24:53;;;;;;;11.80;0.90;;;;;;;;;;4990271;28;20038;-68
2022/12/29 10:27:18;;;;;;;3.75;0.70;;;;;;;;;;4989178;28;20056;-69
2022/12/29 10:29:49;;;;;;;6.25;0.80;;;;;;;;;;4993793;28;20030;-68
2022/12/29 10:32:22;;;;;;;8.20;1.67;;;;;;;;;;4989211;28;20037;-69
2022/12/29 10:34:51;;;;;;;2.70;1.02;;;;;;;;;;4989126;28;20022;-68
2022/12/29 10:37:22;;;;;;;6.75;1.35;;;;;;;;;;4987844;28;20045;-70
2022/12/29 10:39:47;;;;;;;8.43;1.30;;;;;;;;;;4989454;28;20022;-69
2022/12/29 10:42:15;;;;;;;9.70;2.33;;;;;;;;;;5014348;23;20418;-68
2022/12/29 10:44:40;;;;;;;7.60;0.98;;;;;;;;;;5004850;28;20372;-67
2022/12/29 10:47:09;;;;;;;4.97;1.30;;;;;;;;;;5004632;28;20029;-67
2022/12/29 10:49:37;;;;;;;3.50;0.57;;;;;;;;;;4990985;28;20029;-67
2022/12/29 10:52:03;;;;;;;9.52;0.95;;;;;;;;;;5007535;28;20022;-67
2022/12/29 10:54:36;;;;;;;9.20;1.20;;;;;;;;;;5010932;28;20053;-67
2022/12/29 10:57:03;;;;;;;5.72;0.93;;;;;;;;;;5008400;28;20386;-68
2022/12/29 10:59:33;;;;;;;5.47;0.85;;;;;;;;;;5009089;28;20022;-67
2022/12/29 11:02:10;;;;;;;0.98;0.35;;;;;;;;;;5007609;28;20022;-67
2022/12/29 11:04:35;;;;;;;5.53;1.23;;;;;;;;;;5006536;28;20049;-67
2022/12/29 11:07:01;;;;;;;4.40;1.10;;;;;;;;;;5005663;28;20541;-67
2022/12/29 11:09:31;;;;;;;3.88;0.95;;;;;;;;;;5008973;28;20323;-67
2022/12/29 11:11:56;;;;;;;15.07;1.13;;;;;;;;;;5007620;28;20030;-67
2022/12/29 11:14:26;;;;;;;1.85;0.50;;;;;;;;;;5006494;28;20088;-67
2022/12/29 11:16:51;;;;;;;;;;;;;;;;;;5004531;28;20034;-67
2022/12/29 11:19:24;;;;;;;3.55;1.05;;;;;;;;;;5002771;28;19913;-67
2022/12/29 11:21:50;;;;;;;8.57;1.00;;;;;;;;;;5006198;28;20477;-68
2022/12/29 11:24:20;;;;;;;1.92;0.47;;;;;;;;;;5008726;28;20021;-67
2022/12/29 11:26:46;;;;;;;6.10;0.60;;;;;;;;;;5009278;28;20103;-66
2022/12/29 11:29:11;;;;;;;12.98;1.38;;;;;;;;;;5006912;28;20494;-67
2022/12/29 11:31:57;;;;;;;6.80;1.30;;;;;;;;;;5007973;28;20022;-67
2022/12/29 11:34:35;;;;;;;8.10;1.38;;;;;;;;;;5000990;28;20372;-65
2022/12/29 11:37:03;;;;;;;3.53;0.93;;;;;;;;;;5007146;28;20017;-68
2022/12/29 11:39:39;;;;;;;9.38;2.42;;;;;;;;;;5007949;28;20033;-67
2022/12/29 11:42:09;;;;;;;5.97;1.23;;;;;;;;;;5003609;28;20026;-67
2022/12/29 11:44:37;;;;;;;7.07;1.42;;;;;;;;;;5001925;28;20488;-67
2022/12/29 11:47:03;;;;;;;9.63;1.80;;;;;;;;;;4981826;28;20033;-67
2022/12/29 11:49:28;;;;;;;9.68;1.30;;;;;;;;;;5006706;28;20026;-66
2022/12/29 11:51:56;;;;;;;6.97;1.25;;;;;;;;;;5007934;28;20028;-67
2022/12/29 11:54:29;;;;;;;9.90;1.30;;;;;;;;;;5004718;28;20422;-67
2022/12/29 11:56:55;;;;;;;13.95;1.33;;;;;;;;;;5005743;28;20489;-67
2022/12/29 11:59:26;;;;;;;6.63;0.77;;;;;;;;;;5004484;28;20021;-67
2022/12/29 12:01:52;;;;;;;6.10;0.95;;;;;;;;;;5004887;28;20097;-68
2022/12/29 12:04:18;;;;;;;1.58;0.65;;;;;;;;;;5006386;28;20109;-67
2022/12/29 12:06:58;;;;;;;7.43;0.93;;;;;;;;;;5008461;28;20386;-67
2022/12/29 12:09:32;;;;;;;13.48;1.15;;;;;;;;;;5005166;28;20017;-67
2022/12/29 12:11:59;;;;;;;6.57;0.98;;;;;;;;;;5005734;28;20026;-67
2022/12/29 12:14:31;;;;;;;13.98;1.45;;;;;;;;;;5006243;28;20029;-68
2022/12/29 12:17:02;;;;;;;14.00;1.30;;;;;;;;;;5005678;28;20073;-67
2022/12/29 12:19:33;;;;;;;5.72;0.93;;;;;;;;;;4999550;28;20059;-67
2022/12/29 12:22:18;;;;;;;7.35;1.25;;;;;;;;;;5006886;28;20021;-68
2022/12/29 12:24:59;;;;;;;12.00;1.35;;;;;;;;;;5007122;28;20037;-67
2022/12/29 12:27:26;;;;;;;5.80;1.00;;;;;;;;;;5003504;28;20380;-68
2022/12/29 12:29:54;;;;;;;12.00;0.88;;;;;;;;;;5008029;28;20053;-68
2022/12/29 12:32:26;;;;;;;6.80;0.90;;;;;;;;;;5009015;28;20105;-67
2022/12/29 12:34:51;;;;;;;4.88;1.38;;;;;;;;;;5003854;28;20029;-68
2022/12/29 12:37:29;;;;;;;11.25;1.02;;;;;;;;;;5009603;28;20030;-66
2022/12/29 12:40:14;;;;;;;11.50;1.25;;;;;;;;;;5010076;28;20024;-66
2022/12/29 12:43:06;;;;;;;7.25;0.80;;;;;;;;;;4987421;28;20022;-66
2022/12/29 12:45:31;;;;;;;9.95;1.83;;;;;;;;;;5009323;28;20073;-67
2022/12/29 12:48:15;;;;;;;5.57;0.80;;;;;;;;;;5006641;28;20022;-67
2022/12/29 12:50:58;;;;;;;14.95;1.55;;;;;;;;;;5005860;28;20311;-68
2022/12/29 12:53:34;;;;;;;11.30;1.48;;;;;;;;;;5003994;28;20518;-68
2022/12/29 12:56:18;;;;;;;12.13;0.82;;;;;;;;;;5009503;28;20470;-68
2022/12/29 12:58:48;;;;;;;3.67;0.70;;;;;;;;;;5009382;28;20053;-70
2022/12/29 13:01:13;;;;;;;6.45;1.38;;;;;;;;;;5007805;28;20355;-67
2022/12/29 13:03:46;;;;;;;6.90;0.90;;;;;;;;;;5009695;28;20018;-67
2022/12/29 13:06:14;;;;;;;6.20;0.63;;;;;;;;;;5008238;28;20021;-67
2022/12/29 13:08:39;;;;;;;11.80;1.98;;;;;;;;;;5009221;28;20022;-69
2022/12/29 13:11:23;;;;;;;3.95;0.90;;;;;;;;;;5009309;28;20037;-66
2022/12/29 13:13:49;;;;;;;4.07;0.80;;;;;;;;;;5009636;28;20013;-67
2022/12/29 13:16:23;;;;;;;4.30;0.50;;;;;;;;;;5008953;28;20078;-68
2022/12/29 13:18:48;;;;;;;7.30;0.82;;;;;;;;;;5007779;28;20462;-67
2022/12/29 13:21:26;;;;;;;6.75;0.90;;;;;;;;;;5009087;28;20097;-67
2022/12/29 13:24:14;;;;;;;8.65;2.67;;;;;;;;;;5007037;28;20018;-67
2022/12/29 13:26:43;;;;;;;1.48;0.70;;;;;;;;;;4992712;28;20029;-67
2022/12/29 13:29:18;;;;;;;1.55;0.60;;;;;;;;;;5010624;28;20101;-67
2022/12/29 13:31:49;;;;;;;1.45;0.60;;;;;;;;;;5012971;28;20022;-67
2022/12/29 13:34:23;;;;;;;3.90;1.42;;;;;;;;;;5008266;28;20030;-67
2022/12/29 13:36:54;;;;;;;11.13;1.70;;;;;;;;;;5009015;28;21715;-67
2022/12/29 13:39:31;;;;;;;7.35;1.77;;;;;;;;;;5011778;28;20454;-67
2022/12/29 13:41:58;;;;;;;4.53;0.95;;;;;;;;;;5012794;28;20026;-67
2022/12/29 13:44:26;;;;;;;9.35;1.42;;;;;;;;;;5006386;28;20478;-67
2022/12/29 13:46:53;;;;;;;6.28;1.73;;;;;;;;;;5011107;28;20026;-67
2022/12/29 13:49:24;;;;;;;8.82;1.33;;;;;;;;;;5011943;28;20486;-67
2022/12/29 13:51:51;;;;;;;5.30;1.25;;;;;;;;;;5011879;28;20343;-68
2022/12/29 13:54:27;;;;;;;11.55;0.80;;;;;;;;;;5012245;28;20072;-68
2022/12/29 13:56:59;;;;;;;9.70;2.28;;;;;;;;;;5012763;28;20018;-67
2022/12/29 13:59:32;;;;;;;8.75;1.52;;;;;;;;;;5006383;28;20014;-67
2022/12/29 14:02:07;;;;;;;3.90;0.77;;;;;;;;;;5010951;28;20026;-67
2022/12/29 14:04:34;;;;;;;7.93;1.65;;;;;;;;;;5009358;28;20014;-67
2022/12/29 14:07:04;;;;;;;12.10;1.88;;;;;;;;;;5006815;28;20356;-67
2022/12/29 14:09:32;;;;;;;9.93;1.33;;;;;;;;;;5010926;28;20014;-67
2022/12/29 14:11:57;;;;;;;7.80;1.30;;;;;;;;;;5011882;28;20060;-68
2022/12/29 14:14:24;;;;;;;8.03;1.43;;;;;;;;;;5003910;28;20053;-68
2022/12/29 14:16:50;;;;;;;7.43;1.65;;;;;;;;;;4988255;28;20281;-67
2022/12/29 14:19:26;;;;;;;7.03;1.48;;;;;;;;;;5007672;28;20080;-67
2022/12/29 14:21:53;;;;;;;6.22;0.90;;;;;;;;;;5007642;28;20025;-68
2022/12/29 14:24:36;;;;;;;5.85;0.63;;;;;;;;;;5007977;28;20474;-67
2022/12/29 14:27:22;;;;;;;7.47;0.75;;;;;;;;;;5002667;28;20022;-67
2022/12/29 14:29:48;;;;;;;4.22;0.55;;;;;;;;;;5006171;28;20034;-67
2022/12/29 14:32:25;;;;;;;3.83;0.77;;;;;;;;;;5010525;28;20105;-67
2022/12/29 14:34:54;;;;;;;4.60;1.25;;;;;;;;;;5009006;28;20383;-68
2022/12/29 14:37:26;;;;;;;2.22;0.60;;;;;;;;;;5004392;28;20018;-68
2022/12/29 14:40:10;;;;;;;5.07;0.85;;;;;;;;;;5007148;28;20105;-68
2022/12/29 14:42:40;;;;;;;7.35;1.13;;;;;;;;;;5003715;28;20061;-67
2022/12/29 14:45:14;;;;;;;10.57;0.97;;;;;;;;;;5006219;28;20439;-67
2022/12/29 14:47:43;;;;;;;6.93;0.80;;;;;;;;;;5008540;28;20021;-67
2022/12/29 14:50:20;;;;;;;11.83;1.53;;;;;;;;;;5003077;28;20029;-67
2022/12/29 14:52:48;;;;;;;4.30;2.05;;;;;;;;;;5008280;28;20332;-67
2022/12/29 14:55:16;;;;;;;10.60;1.10;;;;;;;;;;5011347;28;20049;-67
2022/12/29 14:57:49;;;;;;;2.55;0.68;;;;;;;;;;5010314;28;20037;-67
2022/12/29 15:00:16;;;;;;;6.45;0.95;;;;;;;;;;5003143;28;20026;-68
2022/12/29 15:02:44;;;;;;;8.10;1.08;;;;;;;;;;5008206;28;20032;-67
2022/12/29 15:05:28;;;;;;;6.75;0.80;;;;;;;;;;5008156;28;20033;-67
2022/12/29 15:07:54;;;;;;;2.92;0.95;;;;;;;;;;5008578;28;20500;-68
2022/12/29 15:10:19;;;;;;;3.85;1.17;;;;;;;;;;5004556;28;20100;-67
2022/12/29 15:12:51;;;;;;;2.60;1.20;;;;;;;;;;5009305;28;20049;-67
2022/12/29 15:15:19;;;;;;;4.05;0.93;;;;;;;;;;5007616;28;20504;-67
2022/12/29 15:17:44;;;;;;;4.30;1.08;;;;;;;;;;5007698;28;20025;-67
2022/12/29 15:20:21;;;;;;;11.15;1.77;;;;;;;;;;5007860;28;20022;-67
2022/12/29 15:22:54;;;;;;;5.22;1.42;;;;;;;;;;5006292;28;20097;-67
2022/12/29 15:25:19;;;;;;;4.30;0.95;;;;;;;;;;5006405;28;20357;-67